VTDKP VOHB-VOBL
Flight info
| Callsign | VTDKP |
|---|---|
| Flight time | 1h 15m |
| Altitude | 13500 |
| Route | DCT |
| Aircraft | DA42/L-SBDGRY/S |
Departure
| Time | 2026-04-26 16:54 |
|---|---|
| Airport | Hubballi Airport (VOHB) |
Arrival
| Time | 2026-04-26 18:10 |
|---|---|
| Airport | Kempegowda International Airport Bengaluru (VOBL) |
| Time | Latitude | Longitude | Altitude | Speed | Heading |
|---|---|---|---|---|---|
| 2026-04-26 16:47 | 15.35844 | 75.08464 | 2165 ft | 0 kts | 173° |
| 2026-04-26 16:51 | 15.35824 | 75.08468 | 2165 ft | 5 kts | 149° |
| 2026-04-26 16:51 | 15.35828 | 75.08500 | 2165 ft | 6 kts | 20° |
| 2026-04-26 16:51 | 15.35878 | 75.08497 | 2160 ft | 8 kts | 353° |
| 2026-04-26 16:52 | 15.35942 | 75.08489 | 2165 ft | 10 kts | 354° |
| 2026-04-26 16:52 | 15.35966 | 75.08486 | 2164 ft | 10 kts | 354° |
| 2026-04-26 16:52 | 15.36097 | 75.08470 | 2161 ft | 13 kts | 353° |
| 2026-04-26 16:52 | 15.36135 | 75.08436 | 2164 ft | 0 kts | 263° |
| 2026-04-26 16:53 | 15.36134 | 75.08430 | 2164 ft | 7 kts | 263° |
| 2026-04-26 16:53 | 15.36103 | 75.08163 | 2161 ft | 66 kts | 259° |
| 2026-04-26 16:53 | 15.36046 | 75.07587 | 2306 ft | 87 kts | 261° |
| 2026-04-26 16:54 | 15.35967 | 75.06960 | 2663 ft | 92 kts | 259° |
| 2026-04-26 16:54 | 15.35837 | 75.06300 | 2953 ft | 97 kts | 260° |
| 2026-04-26 16:54 | 15.35687 | 75.05580 | 3228 ft | 106 kts | 259° |
| 2026-04-26 16:54 | 15.35521 | 75.04827 | 3506 ft | 108 kts | 259° |
| 2026-04-26 16:55 | 15.35173 | 75.04123 | 3776 ft | 118 kts | 224° |
| 2026-04-26 16:55 | 15.34386 | 75.03872 | 4061 ft | 126 kts | 178° |
| 2026-04-26 16:55 | 15.33606 | 75.04284 | 4351 ft | 134 kts | 133° |
| 2026-04-26 16:55 | 15.33286 | 75.05162 | 4664 ft | 133 kts | 88° |
| 2026-04-26 16:56 | 15.33522 | 75.07004 | 5353 ft | 125 kts | 79° |
| 2026-04-26 16:56 | 15.33671 | 75.07875 | 5712 ft | 120 kts | 79° |
| 2026-04-26 16:56 | 15.33828 | 75.08716 | 6065 ft | 117 kts | 79° |
| 2026-04-26 16:57 | 15.33991 | 75.09535 | 6417 ft | 115 kts | 79° |
| 2026-04-26 16:57 | 15.34151 | 75.10336 | 6749 ft | 112 kts | 79° |
| 2026-04-26 16:57 | 15.33758 | 75.11522 | 7328 ft | 111 kts | 127° |
| 2026-04-26 16:58 | 15.33082 | 75.12300 | 7786 ft | 108 kts | 126° |
| 2026-04-26 16:58 | 15.32915 | 75.12497 | 7905 ft | 107 kts | 126° |
| 2026-04-26 16:58 | 15.31647 | 75.14031 | 8850 ft | 103 kts | 124° |
| 2026-04-26 16:59 | 15.31190 | 75.14590 | 9213 ft | 101 kts | 125° |
| 2026-04-26 16:59 | 15.30296 | 75.15690 | 9919 ft | 100 kts | 124° |
| 2026-04-26 17:00 | 15.29546 | 75.16613 | 10444 ft | 101 kts | 124° |
| 2026-04-26 17:00 | 15.28489 | 75.17913 | 11195 ft | 102 kts | 124° |
| 2026-04-26 17:00 | 15.28030 | 75.18478 | 11503 ft | 104 kts | 125° |
| 2026-04-26 17:01 | 15.27559 | 75.19057 | 11821 ft | 106 kts | 125° |
| 2026-04-26 17:01 | 15.27080 | 75.19646 | 12137 ft | 108 kts | 126° |
| 2026-04-26 17:01 | 15.26758 | 75.20041 | 12346 ft | 109 kts | 126° |
| 2026-04-26 17:01 | 15.26097 | 75.20854 | 12774 ft | 111 kts | 126° |
| 2026-04-26 17:02 | 15.25765 | 75.21263 | 12990 ft | 113 kts | 126° |
| 2026-04-26 17:02 | 15.25087 | 75.22095 | 13420 ft | 116 kts | 127° |
| 2026-04-26 17:02 | 15.24522 | 75.22789 | 13453 ft | 135 kts | 127° |
| 2026-04-26 17:02 | 15.23884 | 75.23571 | 13454 ft | 148 kts | 127° |
| 2026-04-26 17:03 | 15.23198 | 75.24414 | 13453 ft | 157 kts | 127° |
| 2026-04-26 17:03 | 15.22716 | 75.25008 | 13455 ft | 161 kts | 127° |
| 2026-04-26 17:03 | 15.21993 | 75.25898 | 13456 ft | 165 kts | 127° |
| 2026-04-26 17:03 | 15.21249 | 75.26814 | 13458 ft | 168 kts | 127° |
| 2026-04-26 17:04 | 15.20495 | 75.27742 | 13455 ft | 169 kts | 127° |
| 2026-04-26 17:04 | 15.19734 | 75.28677 | 13455 ft | 170 kts | 127° |
| 2026-04-26 17:04 | 15.18967 | 75.29620 | 13456 ft | 171 kts | 127° |
| 2026-04-26 17:04 | 15.18198 | 75.30564 | 13457 ft | 172 kts | 127° |
| 2026-04-26 17:05 | 15.17428 | 75.31510 | 13460 ft | 172 kts | 127° |
| 2026-04-26 17:05 | 15.16667 | 75.32445 | 13460 ft | 172 kts | 127° |
| 2026-04-26 17:05 | 15.15896 | 75.33392 | 13460 ft | 172 kts | 127° |
| 2026-04-26 17:05 | 15.15124 | 75.34339 | 13456 ft | 172 kts | 127° |
| 2026-04-26 17:06 | 15.14356 | 75.35282 | 13452 ft | 171 kts | 127° |
| 2026-04-26 17:06 | 15.13590 | 75.36223 | 13462 ft | 171 kts | 127° |
| 2026-04-26 17:06 | 15.12825 | 75.37162 | 13457 ft | 171 kts | 127° |
| 2026-04-26 17:06 | 15.12059 | 75.38102 | 13456 ft | 170 kts | 126° |
| 2026-04-26 17:07 | 15.11296 | 75.39038 | 13458 ft | 170 kts | 126° |
| 2026-04-26 17:07 | 15.10534 | 75.39974 | 13461 ft | 170 kts | 127° |
| 2026-04-26 17:07 | 15.09772 | 75.40909 | 13459 ft | 170 kts | 127° |
| 2026-04-26 17:07 | 15.09020 | 75.41832 | 13459 ft | 170 kts | 127° |
| 2026-04-26 17:08 | 15.08257 | 75.42768 | 13461 ft | 170 kts | 127° |
| 2026-04-26 17:08 | 15.07493 | 75.43704 | 13461 ft | 170 kts | 127° |
| 2026-04-26 17:08 | 15.06728 | 75.44643 | 13461 ft | 170 kts | 127° |
| 2026-04-26 17:08 | 15.05964 | 75.45579 | 13461 ft | 170 kts | 127° |
| 2026-04-26 17:09 | 15.05200 | 75.46516 | 13462 ft | 171 kts | 127° |
| 2026-04-26 17:09 | 15.04693 | 75.47138 | 13463 ft | 171 kts | 127° |
| 2026-04-26 17:09 | 15.03669 | 75.48393 | 13465 ft | 171 kts | 127° |
| 2026-04-26 17:09 | 15.02913 | 75.49320 | 13461 ft | 171 kts | 127° |
| 2026-04-26 17:10 | 15.02145 | 75.50261 | 13458 ft | 171 kts | 127° |
| 2026-04-26 17:10 | 15.01378 | 75.51201 | 13460 ft | 171 kts | 127° |
| 2026-04-26 17:10 | 15.00611 | 75.52141 | 13462 ft | 171 kts | 127° |
| 2026-04-26 17:10 | 14.99843 | 75.53081 | 13462 ft | 171 kts | 127° |
| 2026-04-26 17:11 | 14.99073 | 75.54024 | 13459 ft | 171 kts | 127° |
| 2026-04-26 17:11 | 14.98305 | 75.54965 | 13457 ft | 171 kts | 127° |
| 2026-04-26 17:11 | 14.97538 | 75.55904 | 13457 ft | 171 kts | 127° |
| 2026-04-26 17:11 | 14.96771 | 75.56842 | 13459 ft | 171 kts | 127° |
| 2026-04-26 17:12 | 14.95249 | 75.58706 | 13460 ft | 171 kts | 127° |
| 2026-04-26 17:12 | 14.94484 | 75.59644 | 13463 ft | 170 kts | 127° |
| 2026-04-26 17:13 | 14.92954 | 75.61516 | 13456 ft | 171 kts | 127° |
| 2026-04-26 17:13 | 14.92187 | 75.62455 | 13456 ft | 171 kts | 127° |
| 2026-04-26 17:13 | 14.90649 | 75.64337 | 13459 ft | 171 kts | 127° |
| 2026-04-26 17:14 | 14.89879 | 75.65278 | 13458 ft | 172 kts | 127° |
| 2026-04-26 17:14 | 14.88347 | 75.67152 | 13453 ft | 171 kts | 127° |
| 2026-04-26 17:14 | 14.87578 | 75.68092 | 13457 ft | 171 kts | 127° |
| 2026-04-26 17:15 | 14.86040 | 75.69971 | 13451 ft | 171 kts | 127° |
| 2026-04-26 17:15 | 14.85272 | 75.70911 | 13457 ft | 171 kts | 127° |
| 2026-04-26 17:15 | 14.84503 | 75.71851 | 13455 ft | 171 kts | 127° |
| 2026-04-26 17:16 | 14.83733 | 75.72792 | 13458 ft | 172 kts | 127° |
| 2026-04-26 17:16 | 14.82961 | 75.73735 | 13459 ft | 172 kts | 127° |
| 2026-04-26 17:16 | 14.82201 | 75.74664 | 13456 ft | 172 kts | 127° |
| 2026-04-26 17:16 | 14.81431 | 75.75604 | 13453 ft | 171 kts | 127° |
| 2026-04-26 17:17 | 14.80662 | 75.76543 | 13453 ft | 171 kts | 127° |
| 2026-04-26 17:17 | 14.79893 | 75.77482 | 13457 ft | 171 kts | 127° |
| 2026-04-26 17:17 | 14.79123 | 75.78422 | 13459 ft | 171 kts | 127° |
| 2026-04-26 17:17 | 14.78352 | 75.79364 | 13456 ft | 172 kts | 127° |
| 2026-04-26 17:18 | 14.77580 | 75.80306 | 13464 ft | 172 kts | 127° |
| 2026-04-26 17:18 | 14.76809 | 75.81247 | 13461 ft | 171 kts | 127° |
| 2026-04-26 17:18 | 14.76040 | 75.82185 | 13455 ft | 171 kts | 127° |
| 2026-04-26 17:18 | 14.75282 | 75.83110 | 13455 ft | 171 kts | 127° |
| 2026-04-26 17:19 | 14.73746 | 75.84984 | 13459 ft | 171 kts | 127° |
| 2026-04-26 17:19 | 14.72976 | 75.85924 | 13457 ft | 172 kts | 127° |
| 2026-04-26 17:19 | 14.72203 | 75.86867 | 13454 ft | 172 kts | 127° |
| 2026-04-26 17:20 | 14.71430 | 75.87810 | 13459 ft | 172 kts | 127° |
| 2026-04-26 17:20 | 14.70916 | 75.88437 | 13459 ft | 173 kts | 127° |
| 2026-04-26 17:20 | 14.69879 | 75.89701 | 13456 ft | 172 kts | 127° |
| 2026-04-26 17:20 | 14.69103 | 75.90647 | 13455 ft | 172 kts | 127° |
| 2026-04-26 17:21 | 14.68341 | 75.91576 | 13453 ft | 172 kts | 127° |
| 2026-04-26 17:21 | 14.67569 | 75.92516 | 13453 ft | 172 kts | 127° |
| 2026-04-26 17:21 | 14.66798 | 75.93457 | 13463 ft | 172 kts | 127° |
| 2026-04-26 17:21 | 14.66026 | 75.94397 | 13462 ft | 172 kts | 127° |
| 2026-04-26 17:22 | 14.65254 | 75.95338 | 13464 ft | 172 kts | 127° |
| 2026-04-26 17:22 | 14.64483 | 75.96278 | 13461 ft | 172 kts | 127° |
| 2026-04-26 17:22 | 14.63711 | 75.97217 | 13461 ft | 171 kts | 127° |
| 2026-04-26 17:22 | 14.62940 | 75.98156 | 13461 ft | 171 kts | 127° |
| 2026-04-26 17:23 | 14.62169 | 75.99096 | 13458 ft | 171 kts | 127° |
| 2026-04-26 17:23 | 14.61409 | 76.00021 | 13458 ft | 171 kts | 127° |
| 2026-04-26 17:23 | 14.60639 | 76.00958 | 13462 ft | 171 kts | 127° |
| 2026-04-26 17:23 | 14.59872 | 76.01892 | 13458 ft | 170 kts | 127° |
| 2026-04-26 17:24 | 14.59105 | 76.02825 | 13460 ft | 171 kts | 127° |
| 2026-04-26 17:24 | 14.58337 | 76.03761 | 13460 ft | 171 kts | 127° |
| 2026-04-26 17:24 | 14.57566 | 76.04699 | 13462 ft | 171 kts | 127° |
| 2026-04-26 17:24 | 14.56795 | 76.05637 | 13460 ft | 172 kts | 127° |
| 2026-04-26 17:25 | 14.56023 | 76.06576 | 13462 ft | 172 kts | 127° |
| 2026-04-26 17:25 | 14.55252 | 76.07515 | 13465 ft | 171 kts | 127° |
| 2026-04-26 17:25 | 14.54489 | 76.08443 | 13468 ft | 172 kts | 127° |
| 2026-04-26 17:25 | 14.53717 | 76.09382 | 13464 ft | 171 kts | 127° |
| 2026-04-26 17:26 | 14.52946 | 76.10320 | 13469 ft | 171 kts | 127° |
| 2026-04-26 17:26 | 14.52175 | 76.11257 | 13464 ft | 172 kts | 127° |
| 2026-04-26 17:26 | 14.51402 | 76.12196 | 13467 ft | 172 kts | 127° |
| 2026-04-26 17:26 | 14.50629 | 76.13137 | 13467 ft | 171 kts | 127° |
| 2026-04-26 17:27 | 14.49857 | 76.14074 | 13465 ft | 171 kts | 127° |
| 2026-04-26 17:27 | 14.49097 | 76.14998 | 13464 ft | 171 kts | 127° |
| 2026-04-26 17:27 | 14.48329 | 76.15932 | 13471 ft | 170 kts | 127° |
| 2026-04-26 17:27 | 14.47561 | 76.16864 | 13466 ft | 170 kts | 127° |
| 2026-04-26 17:28 | 14.46796 | 76.17795 | 13464 ft | 170 kts | 127° |
| 2026-04-26 17:28 | 14.46031 | 76.18724 | 13464 ft | 170 kts | 127° |
| 2026-04-26 17:28 | 14.45266 | 76.19653 | 13464 ft | 170 kts | 127° |
| 2026-04-26 17:28 | 14.44501 | 76.20583 | 13466 ft | 170 kts | 127° |
| 2026-04-26 17:29 | 14.43733 | 76.21515 | 13472 ft | 171 kts | 127° |
| 2026-04-26 17:29 | 14.43222 | 76.22136 | 13468 ft | 171 kts | 127° |
| 2026-04-26 17:29 | 14.42201 | 76.23376 | 13468 ft | 171 kts | 127° |
| 2026-04-26 17:29 | 14.41429 | 76.24312 | 13472 ft | 171 kts | 127° |
| 2026-04-26 17:30 | 14.40659 | 76.25247 | 13467 ft | 171 kts | 127° |
| 2026-04-26 17:30 | 14.39889 | 76.26181 | 13471 ft | 171 kts | 127° |
| 2026-04-26 17:30 | 14.39121 | 76.27112 | 13475 ft | 170 kts | 127° |
| 2026-04-26 17:30 | 14.38352 | 76.28043 | 13472 ft | 171 kts | 127° |
| 2026-04-26 17:31 | 14.37584 | 76.28976 | 13474 ft | 171 kts | 127° |
| 2026-04-26 17:31 | 14.36815 | 76.29910 | 13474 ft | 171 kts | 127° |
| 2026-04-26 17:31 | 14.36043 | 76.30846 | 13481 ft | 171 kts | 127° |
| 2026-04-26 17:31 | 14.35274 | 76.31779 | 13480 ft | 171 kts | 127° |
| 2026-04-26 17:32 | 14.34512 | 76.32704 | 13469 ft | 171 kts | 127° |
| 2026-04-26 17:32 | 14.33739 | 76.33641 | 13471 ft | 172 kts | 127° |
| 2026-04-26 17:32 | 14.32968 | 76.34576 | 13468 ft | 171 kts | 127° |
| 2026-04-26 17:32 | 14.32197 | 76.35510 | 13468 ft | 171 kts | 127° |
| 2026-04-26 17:33 | 14.31426 | 76.36445 | 13472 ft | 171 kts | 127° |
| 2026-04-26 17:33 | 14.30657 | 76.37378 | 13473 ft | 171 kts | 127° |
| 2026-04-26 17:33 | 14.29887 | 76.38311 | 13470 ft | 171 kts | 127° |
| 2026-04-26 17:34 | 14.28359 | 76.40161 | 13468 ft | 171 kts | 127° |
| 2026-04-26 17:34 | 14.27589 | 76.41094 | 13470 ft | 171 kts | 127° |
| 2026-04-26 17:34 | 14.26819 | 76.42028 | 13468 ft | 171 kts | 127° |
| 2026-04-26 17:34 | 14.26047 | 76.42963 | 13468 ft | 171 kts | 127° |
| 2026-04-26 17:35 | 14.25275 | 76.43898 | 13479 ft | 171 kts | 127° |
| 2026-04-26 17:35 | 14.24500 | 76.44836 | 13470 ft | 172 kts | 127° |
| 2026-04-26 17:35 | 14.23725 | 76.45775 | 13469 ft | 172 kts | 127° |
| 2026-04-26 17:35 | 14.22949 | 76.46714 | 13471 ft | 172 kts | 127° |
| 2026-04-26 17:36 | 14.22184 | 76.47641 | 13467 ft | 172 kts | 127° |
| 2026-04-26 17:36 | 14.21409 | 76.48577 | 13467 ft | 172 kts | 127° |
| 2026-04-26 17:36 | 14.20637 | 76.49512 | 13466 ft | 171 kts | 127° |
| 2026-04-26 17:36 | 14.19865 | 76.50447 | 13465 ft | 171 kts | 127° |
| 2026-04-26 17:37 | 14.19090 | 76.51384 | 13471 ft | 172 kts | 127° |
| 2026-04-26 17:37 | 14.18311 | 76.52326 | 13475 ft | 173 kts | 127° |
| 2026-04-26 17:37 | 14.17534 | 76.53267 | 13474 ft | 173 kts | 127° |
| 2026-04-26 17:38 | 14.15985 | 76.55140 | 13477 ft | 173 kts | 127° |
| 2026-04-26 17:38 | 14.15205 | 76.56083 | 13476 ft | 173 kts | 127° |
| 2026-04-26 17:38 | 14.14428 | 76.57025 | 13477 ft | 173 kts | 127° |
| 2026-04-26 17:38 | 14.13649 | 76.57968 | 13477 ft | 173 kts | 127° |
| 2026-04-26 17:39 | 14.12870 | 76.58908 | 13472 ft | 173 kts | 127° |
| 2026-04-26 17:39 | 14.12091 | 76.59849 | 13471 ft | 173 kts | 127° |
| 2026-04-26 17:39 | 14.11312 | 76.60790 | 13472 ft | 172 kts | 127° |
| 2026-04-26 17:39 | 14.10534 | 76.61730 | 13472 ft | 173 kts | 127° |
| 2026-04-26 17:40 | 14.09756 | 76.62671 | 13469 ft | 173 kts | 127° |
| 2026-04-26 17:40 | 14.09240 | 76.63294 | 13469 ft | 173 kts | 127° |
| 2026-04-26 17:40 | 14.08207 | 76.64541 | 13469 ft | 173 kts | 127° |
| 2026-04-26 17:40 | 14.07427 | 76.65484 | 13471 ft | 173 kts | 127° |
| 2026-04-26 17:41 | 14.06646 | 76.66427 | 13471 ft | 173 kts | 127° |
| 2026-04-26 17:41 | 14.05865 | 76.67370 | 13470 ft | 173 kts | 127° |
| 2026-04-26 17:41 | 14.05084 | 76.68312 | 13472 ft | 173 kts | 127° |
| 2026-04-26 17:41 | 14.04305 | 76.69254 | 13471 ft | 173 kts | 127° |
| 2026-04-26 17:42 | 14.03526 | 76.70193 | 13471 ft | 172 kts | 127° |
| 2026-04-26 17:42 | 14.02748 | 76.71132 | 13471 ft | 172 kts | 127° |
| 2026-04-26 17:42 | 14.01980 | 76.72060 | 13469 ft | 172 kts | 127° |
| 2026-04-26 17:42 | 14.01201 | 76.72999 | 13469 ft | 173 kts | 127° |
| 2026-04-26 17:43 | 14.00422 | 76.73940 | 13471 ft | 173 kts | 127° |
| 2026-04-26 17:43 | 13.99640 | 76.74883 | 13471 ft | 173 kts | 127° |
| 2026-04-26 17:43 | 13.98860 | 76.75824 | 13474 ft | 173 kts | 127° |
| 2026-04-26 17:43 | 13.98079 | 76.76766 | 13474 ft | 173 kts | 127° |
| 2026-04-26 17:44 | 13.97301 | 76.77704 | 13475 ft | 172 kts | 127° |
| 2026-04-26 17:44 | 13.96524 | 76.78641 | 13476 ft | 172 kts | 127° |
| 2026-04-26 17:44 | 13.95758 | 76.79565 | 13480 ft | 172 kts | 127° |
| 2026-04-26 17:44 | 13.94980 | 76.80503 | 13479 ft | 172 kts | 127° |
| 2026-04-26 17:45 | 13.94202 | 76.81441 | 13472 ft | 173 kts | 127° |
| 2026-04-26 17:45 | 13.93420 | 76.82383 | 13474 ft | 173 kts | 127° |
| 2026-04-26 17:45 | 13.92639 | 76.83325 | 13474 ft | 173 kts | 127° |
| 2026-04-26 17:45 | 13.91857 | 76.84267 | 13473 ft | 173 kts | 127° |
| 2026-04-26 17:46 | 13.91074 | 76.85210 | 13480 ft | 173 kts | 127° |
| 2026-04-26 17:46 | 13.90301 | 76.86142 | 13479 ft | 173 kts | 127° |
| 2026-04-26 17:46 | 13.89517 | 76.87087 | 13472 ft | 174 kts | 127° |
| 2026-04-26 17:46 | 13.88726 | 76.88039 | 13473 ft | 176 kts | 127° |
| 2026-04-26 17:47 | 13.87929 | 76.88999 | 13473 ft | 177 kts | 127° |
| 2026-04-26 17:47 | 13.87399 | 76.89638 | 13473 ft | 177 kts | 127° |
| 2026-04-26 17:47 | 13.86325 | 76.90930 | 13472 ft | 178 kts | 127° |
| 2026-04-26 17:47 | 13.85521 | 76.91898 | 13478 ft | 178 kts | 128° |
| 2026-04-26 17:48 | 13.84714 | 76.92869 | 13478 ft | 179 kts | 127° |
| 2026-04-26 17:48 | 13.83915 | 76.93831 | 13480 ft | 179 kts | 128° |
| 2026-04-26 17:48 | 13.83103 | 76.94808 | 13481 ft | 180 kts | 127° |
| 2026-04-26 17:48 | 13.82291 | 76.95786 | 13482 ft | 180 kts | 127° |
| 2026-04-26 17:49 | 13.81477 | 76.96765 | 13482 ft | 180 kts | 127° |
| 2026-04-26 17:49 | 13.80663 | 76.97745 | 13481 ft | 180 kts | 127° |
| 2026-04-26 17:49 | 13.79847 | 76.98726 | 13480 ft | 180 kts | 127° |
| 2026-04-26 17:49 | 13.79034 | 76.99704 | 13481 ft | 180 kts | 127° |
| 2026-04-26 17:50 | 13.78221 | 77.00681 | 13479 ft | 180 kts | 127° |
| 2026-04-26 17:50 | 13.77408 | 77.01660 | 13478 ft | 180 kts | 127° |
| 2026-04-26 17:50 | 13.76605 | 77.02625 | 13479 ft | 180 kts | 127° |
| 2026-04-26 17:50 | 13.75793 | 77.03601 | 13479 ft | 180 kts | 127° |
| 2026-04-26 17:51 | 13.74980 | 77.04579 | 13476 ft | 180 kts | 127° |
| 2026-04-26 17:51 | 13.74167 | 77.05556 | 13476 ft | 180 kts | 127° |
| 2026-04-26 17:51 | 13.73355 | 77.06532 | 13476 ft | 179 kts | 127° |
| 2026-04-26 17:51 | 13.72542 | 77.07508 | 13479 ft | 179 kts | 127° |
| 2026-04-26 17:52 | 13.71732 | 77.08482 | 13482 ft | 180 kts | 127° |
| 2026-04-26 17:52 | 13.70919 | 77.09459 | 13482 ft | 180 kts | 127° |
| 2026-04-26 17:52 | 13.70117 | 77.10423 | 13482 ft | 180 kts | 127° |
| 2026-04-26 17:52 | 13.69303 | 77.11401 | 13481 ft | 180 kts | 127° |
| 2026-04-26 17:53 | 13.68489 | 77.12378 | 13484 ft | 179 kts | 127° |
| 2026-04-26 17:53 | 13.67678 | 77.13351 | 13485 ft | 179 kts | 127° |
| 2026-04-26 17:53 | 13.66867 | 77.14326 | 13485 ft | 179 kts | 127° |
| 2026-04-26 17:54 | 13.65242 | 77.16276 | 13480 ft | 180 kts | 127° |
| 2026-04-26 17:54 | 13.64428 | 77.17253 | 13480 ft | 180 kts | 127° |
| 2026-04-26 17:54 | 13.63625 | 77.18216 | 13480 ft | 180 kts | 127° |
| 2026-04-26 17:54 | 13.62812 | 77.19192 | 13481 ft | 180 kts | 127° |
| 2026-04-26 17:55 | 13.61997 | 77.20171 | 13485 ft | 180 kts | 127° |
| 2026-04-26 17:55 | 13.61181 | 77.21149 | 13484 ft | 180 kts | 127° |
| 2026-04-26 17:55 | 13.60365 | 77.22128 | 13484 ft | 180 kts | 127° |
| 2026-04-26 17:55 | 13.59548 | 77.23108 | 13472 ft | 181 kts | 127° |
| 2026-04-26 17:56 | 13.58726 | 77.24094 | 13481 ft | 182 kts | 127° |
| 2026-04-26 17:56 | 13.57065 | 77.26086 | 13482 ft | 184 kts | 127° |
| 2026-04-26 17:57 | 13.55407 | 77.28073 | 13482 ft | 185 kts | 128° |
| 2026-04-26 17:57 | 13.54571 | 77.29075 | 13482 ft | 185 kts | 128° |
| 2026-04-26 17:57 | 13.53733 | 77.30080 | 13480 ft | 185 kts | 128° |
| 2026-04-26 17:57 | 13.52897 | 77.31082 | 13480 ft | 185 kts | 126° |
| 2026-04-26 17:58 | 13.50387 | 77.34089 | 13481 ft | 185 kts | 127° |
| 2026-04-26 17:59 | 13.48725 | 77.36080 | 13482 ft | 185 kts | 127° |
| 2026-04-26 17:59 | 13.47888 | 77.37082 | 13482 ft | 185 kts | 127° |
| 2026-04-26 17:59 | 13.47050 | 77.38086 | 13483 ft | 185 kts | 127° |
| 2026-04-26 17:59 | 13.46213 | 77.39088 | 13493 ft | 185 kts | 127° |
| 2026-04-26 18:00 | 13.45375 | 77.40089 | 13276 ft | 184 kts | 127° |
| 2026-04-26 18:00 | 13.44539 | 77.41088 | 13026 ft | 184 kts | 127° |
| 2026-04-26 18:00 | 13.43704 | 77.42089 | 12778 ft | 184 kts | 126° |
| 2026-04-26 18:00 | 13.42871 | 77.43086 | 12531 ft | 184 kts | 127° |
| 2026-04-26 18:01 | 13.42051 | 77.44067 | 12286 ft | 183 kts | 127° |
| 2026-04-26 18:01 | 13.41223 | 77.45058 | 12046 ft | 183 kts | 127° |
| 2026-04-26 18:01 | 13.40397 | 77.46047 | 11810 ft | 182 kts | 127° |
| 2026-04-26 18:01 | 13.39574 | 77.47031 | 11570 ft | 181 kts | 127° |
| 2026-04-26 18:02 | 13.38753 | 77.48013 | 11334 ft | 181 kts | 127° |
| 2026-04-26 18:02 | 13.38211 | 77.48660 | 11177 ft | 180 kts | 126° |
| 2026-04-26 18:02 | 13.37121 | 77.49964 | 10866 ft | 180 kts | 127° |
| 2026-04-26 18:02 | 13.36307 | 77.50937 | 10633 ft | 179 kts | 127° |
| 2026-04-26 18:03 | 13.35506 | 77.51895 | 10420 ft | 179 kts | 127° |
| 2026-04-26 18:03 | 13.34699 | 77.52859 | 10195 ft | 178 kts | 127° |
| 2026-04-26 18:03 | 13.33896 | 77.53820 | 9969 ft | 177 kts | 127° |
| 2026-04-26 18:03 | 13.33095 | 77.54776 | 9729 ft | 176 kts | 127° |
| 2026-04-26 18:04 | 13.32298 | 77.55727 | 9483 ft | 175 kts | 126° |
| 2026-04-26 18:04 | 13.31513 | 77.56667 | 9236 ft | 172 kts | 126° |
| 2026-04-26 18:04 | 13.30736 | 77.57596 | 9004 ft | 170 kts | 127° |
| 2026-04-26 18:05 | 13.29218 | 77.59409 | 8566 ft | 166 kts | 126° |
| 2026-04-26 18:05 | 13.28317 | 77.60135 | 8345 ft | 170 kts | 156° |
| 2026-04-26 18:05 | 13.27138 | 77.60248 | 8139 ft | 171 kts | 179° |
| 2026-04-26 18:05 | 13.25956 | 77.60183 | 7926 ft | 169 kts | 181° |
| 2026-04-26 18:06 | 13.24792 | 77.60108 | 7713 ft | 166 kts | 181° |
| 2026-04-26 18:06 | 13.23645 | 77.60034 | 7505 ft | 164 kts | 181° |
| 2026-04-26 18:06 | 13.22515 | 77.60029 | 7286 ft | 161 kts | 163° |
| 2026-04-26 18:06 | 13.21629 | 77.60642 | 7082 ft | 153 kts | 120° |
| 2026-04-26 18:07 | 13.21279 | 77.61628 | 6772 ft | 142 kts | 102° |
| 2026-04-26 18:07 | 13.21081 | 77.62514 | 6405 ft | 116 kts | 99° |
| 2026-04-26 18:07 | 13.20996 | 77.63353 | 5860 ft | 121 kts | 92° |
| 2026-04-26 18:07 | 13.20879 | 77.63907 | 5509 ft | 118 kts | 119° |
| 2026-04-26 18:08 | 13.20740 | 77.64940 | 4851 ft | 106 kts | 90° |
| 2026-04-26 18:08 | 13.20842 | 77.65604 | 4367 ft | 91 kts | 92° |
| 2026-04-26 18:08 | 13.20843 | 77.66289 | 4007 ft | 96 kts | 98° |
| 2026-04-26 18:08 | 13.20808 | 77.66958 | 3786 ft | 91 kts | 100° |
| 2026-04-26 18:09 | 13.20745 | 77.67626 | 3536 ft | 98 kts | 99° |
| 2026-04-26 18:09 | 13.20745 | 77.68311 | 3191 ft | 98 kts | 97° |
| 2026-04-26 18:09 | 13.20720 | 77.68989 | 2996 ft | 90 kts | 88° |
| 2026-04-26 18:09 | 13.20714 | 77.69560 | 2965 ft | 63 kts | 96° |
| 2026-04-26 18:10 | 13.20705 | 77.69896 | 2963 ft | 36 kts | 91° |
| 2026-04-26 18:10 | 13.20702 | 77.70138 | 2963 ft | 34 kts | 90° |
| 2026-04-26 18:10 | 13.20700 | 77.70353 | 2963 ft | 28 kts | 96° |
| 2026-04-26 18:10 | 13.20655 | 77.70517 | 2957 ft | 20 kts | 116° |
| 2026-04-26 18:11 | 13.20596 | 77.70623 | 2963 ft | 14 kts | 127° |
| 2026-04-26 18:11 | 13.20549 | 77.70705 | 2959 ft | 13 kts | 123° |
| 2026-04-26 18:11 | 13.20527 | 77.70788 | 2961 ft | 13 kts | 89° |
| 2026-04-26 18:11 | 13.20518 | 77.70877 | 2959 ft | 12 kts | 143° |
| 2026-04-26 18:12 | 13.20453 | 77.70889 | 2961 ft | 7 kts | 144° |
| 2026-04-26 18:12 | 13.20441 | 77.70927 | 2958 ft | 6 kts | 87° |
| 2026-04-26 18:12 | 13.20427 | 77.70953 | 2959 ft | 4 kts | 190° |
| 2026-04-26 18:12 | 13.20403 | 77.70952 | 2963 ft | 4 kts | 179° |
| 2026-04-26 18:13 | 13.20389 | 77.70952 | 2960 ft | 0 kts | 181° |